首页
METAR-TAF:

METAR-TAF

机场 :

厦门高崎国际机场

厦门, 中华人民共和国

纬度: 24-29N, 经度: 118-05E, 海拔: 139米

当前天气观测

该预报发布于50分钟前的03:00 UTC
风速14节,风向,在东转东北东南之间变化
温度 29°C
湿度 74%
气压 1004 hPa
能见度10公里或以上
多云层高于6000英尺

METAR: ZSAM 280300Z 10007MPS 070V130 9999 BKN060 29/24 Q1004 NOSIG

时间: 11:50 (03:50 UTC)

预报

该预报发布于6小时和46分钟前的21:04 UTC
预报有效从28日的 00点(UTC)到 28日的 24点(UTC)
风速10节,风向,有时为23节阵风
能見度: 5000
散云层高于1000英尺
多云层高于3000英尺
轻雾,

TAF: ZSAM 272104Z 2800/2824 08005G12MPS 5000 BR SCT010 BKN030 TX30/2806Z TN23/2821Z

超过4000个机场的气象观测和天气预报(METAR&TAF报告)。

可查询的气象台以黄色和红色小点在地图上表示。

将鼠标移到小点上方,可查看气象台名称。

然后点击查看天气观测和预报。

如需切换地图:点击带黑十字的绿色按钮放大地图;点击带横线的绿色按钮缩小地图;或者点击绿色箭头查看邻近地区的地图。


METAR-TAF: